createdAt,value
2019-06-15T00:01:39.773Z,74.90
2019-06-15T00:04:09.179Z,75.00
2019-06-15T00:06:38.608Z,75.10
2019-06-15T00:09:08.471Z,75.20
2019-06-15T00:11:37.856Z,75.40
2019-06-15T00:14:07.232Z,75.60
2019-06-15T00:16:36.644Z,75.70
2019-06-15T00:19:06.029Z,75.90
2019-06-15T00:21:35.444Z,76.10
2019-06-15T00:24:04.847Z,76.30
2019-06-15T00:26:34.341Z,76.40
2019-06-15T00:29:03.696Z,76.50
2019-06-15T00:31:33.074Z,76.50
2019-06-15T00:34:02.500Z,76.50
2019-06-15T00:36:31.984Z,76.50
2019-06-15T00:39:01.383Z,76.60
2019-06-15T00:41:30.763Z,76.60
2019-06-15T00:44:00.180Z,76.60
2019-06-15T00:46:29.581Z,76.60
2019-06-15T00:48:58.959Z,76.50
2019-06-15T00:51:28.351Z,76.40
2019-06-15T00:53:57.799Z,76.30
2019-06-15T00:56:27.165Z,76.20
2019-06-15T00:58:56.569Z,76.20
2019-06-15T01:01:25.965Z,76.20
2019-06-15T01:03:55.392Z,76.30
2019-06-15T01:06:24.768Z,76.40
2019-06-15T01:08:54.412Z,76.30
2019-06-15T01:11:23.835Z,76.40
2019-06-15T01:13:53.218Z,76.50
2019-06-15T01:16:22.676Z,76.70
2019-06-15T01:18:52.061Z,76.90
2019-06-15T01:21:21.476Z,77.30
2019-06-15T01:23:50.842Z,77.60
2019-06-15T01:26:20.287Z,77.90
2019-06-15T01:28:49.663Z,78.30
2019-06-15T01:31:19.035Z,78.70
2019-06-15T01:33:48.433Z,79.10
2019-06-15T01:36:17.815Z,79.50
2019-06-15T01:38:47.285Z,79.80
2019-06-15T01:41:16.667Z,80.20
2019-06-15T01:43:46.099Z,80.40
2019-06-15T01:46:15.536Z,80.80
2019-06-15T01:48:44.958Z,81.00
2019-06-15T01:51:14.414Z,82.00
2019-06-15T01:53:43.856Z,81.60
2019-06-15T01:56:13.224Z,81.80
2019-06-15T01:58:42.648Z,82.10
2019-06-15T02:01:12.059Z,82.20
2019-06-15T02:03:41.468Z,82.40
2019-06-15T02:06:10.885Z,82.60
2019-06-15T02:08:40.367Z,82.60
2019-06-15T02:11:09.772Z,82.70
2019-06-15T02:13:39.416Z,82.70
2019-06-15T02:16:08.881Z,82.50
2019-06-15T02:18:38.317Z,82.50
2019-06-15T02:21:07.726Z,82.60
2019-06-15T02:23:37.079Z,82.70
2019-06-15T02:26:06.511Z,82.80
2019-06-15T02:28:35.928Z,82.80
2019-06-15T02:31:05.459Z,82.90
2019-06-15T02:33:34.840Z,83.00
2019-06-15T02:36:04.383Z,83.30
2019-06-15T02:38:33.767Z,83.40
2019-06-15T02:41:03.176Z,83.50
2019-06-15T02:43:32.576Z,83.40
2019-06-15T02:46:02.179Z,83.40
2019-06-15T02:48:31.675Z,83.40
2019-06-15T02:51:01.394Z,83.30
2019-06-15T02:53:30.827Z,83.30
2019-06-15T02:56:00.254Z,83.20
2019-06-15T02:58:29.628Z,83.30
2019-06-15T03:01:04.623Z,83.20
2019-06-15T03:03:34.122Z,83.30
2019-06-15T03:06:03.880Z,83.30
2019-06-15T03:08:33.837Z,83.40
2019-06-15T03:11:03.468Z,83.40
2019-06-15T03:13:34.952Z,83.60
2019-06-15T03:16:04.705Z,83.70
2019-06-15T03:18:34.237Z,83.90
2019-06-15T03:21:03.745Z,84.10
2019-06-15T03:23:33.164Z,84.30
2019-06-15T03:26:05.782Z,84.40
2019-06-15T03:28:33.639Z,84.60
2019-06-15T03:31:03.063Z,84.90
2019-06-15T03:33:32.475Z,85.10
2019-06-15T03:36:01.931Z,85.30
2019-06-15T03:38:31.409Z,85.40
2019-06-15T03:41:00.837Z,85.40
2019-06-15T03:43:30.266Z,85.60
2019-06-15T03:45:59.929Z,85.80
2019-06-15T03:48:29.373Z,86.00
2019-06-15T03:50:58.778Z,86.00
2019-06-15T03:53:28.195Z,86.10
2019-06-15T03:55:57.584Z,86.10
2019-06-15T03:58:27.021Z,86.10
2019-06-15T04:01:07.512Z,86.00
2019-06-15T04:03:36.949Z,86.00
2019-06-15T04:06:06.385Z,85.80
2019-06-15T04:08:35.821Z,85.80
2019-06-15T04:11:05.348Z,85.70
2019-06-15T04:13:34.819Z,85.60
2019-06-15T04:16:04.397Z,85.70
2019-06-15T04:18:33.747Z,85.80
2019-06-15T04:21:03.188Z,86.00
2019-06-15T04:23:32.571Z,86.00
2019-06-15T04:26:02.007Z,85.90
2019-06-15T04:28:31.392Z,85.60
2019-06-15T04:31:00.783Z,85.10
2019-06-15T04:33:30.266Z,84.40
2019-06-15T04:35:59.596Z,83.60
2019-06-15T04:38:29.024Z,82.80
2019-06-15T04:41:01.446Z,82.00
2019-06-15T04:43:29.506Z,81.30
2019-06-15T04:45:58.954Z,80.50
2019-06-15T04:48:28.340Z,79.70
2019-06-15T04:50:57.792Z,79.10
2019-06-15T04:53:27.212Z,78.60
2019-06-15T04:55:56.618Z,78.20
2019-06-15T04:58:25.929Z,78.10
2019-06-15T05:00:55.328Z,77.80
2019-06-15T05:03:24.986Z,77.50
2019-06-15T05:05:54.404Z,76.90
2019-06-15T05:08:23.789Z,76.20
2019-06-15T05:10:59.375Z,75.20
2019-06-15T05:13:24.304Z,73.90
2019-06-15T05:15:53.816Z,72.40
2019-06-15T05:18:23.240Z,71.00
2019-06-15T05:20:52.620Z,70.60
2019-06-15T05:23:22.025Z,68.90
2019-06-15T05:25:51.423Z,67.90
2019-06-15T05:28:20.816Z,65.50
2019-06-15T05:30:50.286Z,65.00
2019-06-15T05:33:19.746Z,63.70
2019-06-15T05:35:49.151Z,62.50
2019-06-15T05:38:18.570Z,61.70
2019-06-15T05:40:47.949Z,61.00
2019-06-15T05:43:17.357Z,60.30
2019-06-15T05:45:46.752Z,60.40
2019-06-15T05:48:16.184Z,60.40
2019-06-15T05:50:45.556Z,60.40
2019-06-15T05:53:14.973Z,60.20
2019-06-15T05:55:44.530Z,60.00
2019-06-15T05:58:13.896Z,59.70
2019-06-15T06:00:43.338Z,59.20
2019-06-15T06:03:12.814Z,59.20
2019-06-15T06:05:42.212Z,59.20
2019-06-15T06:08:11.596Z,59.00
2019-06-15T06:10:41.029Z,59.00
2019-06-15T06:13:10.435Z,58.80
2019-06-15T06:15:39.878Z,58.80
2019-06-15T06:18:09.496Z,58.60
2019-06-15T06:20:38.899Z,58.30
2019-06-15T06:23:08.308Z,58.20
2019-06-15T06:25:37.704Z,58.30
2019-06-15T06:28:07.141Z,58.20
2019-06-15T06:30:36.547Z,58.40
2019-06-15T06:33:05.981Z,58.50
2019-06-15T06:35:35.486Z,58.20
2019-06-15T06:38:04.912Z,58.20
2019-06-15T06:40:34.320Z,58.10
2019-06-15T06:43:03.712Z,57.80
2019-06-15T06:45:33.231Z,57.60
2019-06-15T06:48:02.624Z,57.50
2019-06-15T06:50:32.068Z,57.00
2019-06-15T06:53:01.445Z,56.80
2019-06-15T06:55:30.864Z,56.50
2019-06-15T06:58:00.258Z,56.40
2019-06-15T07:00:30.247Z,56.30
2019-06-15T07:02:59.736Z,56.00
2019-06-15T07:05:29.192Z,55.80
2019-06-15T07:07:58.563Z,55.60
2019-06-15T07:10:28.012Z,55.30
2019-06-15T07:12:57.448Z,55.30
2019-06-15T07:15:26.870Z,54.80
2019-06-15T07:17:56.303Z,54.70
2019-06-15T07:20:25.701Z,54.70
2019-06-15T07:22:55.123Z,54.70
2019-06-15T07:25:24.505Z,54.50
2019-06-15T07:28:07.107Z,54.60
2019-06-15T07:30:24.959Z,54.50
2019-06-15T07:32:54.343Z,54.60
2019-06-15T07:35:23.836Z,54.50
2019-06-15T07:37:53.237Z,54.30
2019-06-15T07:40:22.641Z,54.10
2019-06-15T07:42:52.432Z,54.00
2019-06-15T07:45:21.858Z,54.10
2019-06-15T07:47:51.314Z,54.10
2019-06-15T07:50:20.676Z,54.10
2019-06-15T07:52:50.103Z,53.80
2019-06-15T07:55:19.779Z,53.80
2019-06-15T07:57:49.180Z,53.80
2019-06-15T08:00:18.759Z,54.00
2019-06-15T08:02:48.168Z,53.80
2019-06-15T08:05:17.566Z,53.70
2019-06-15T08:07:47.071Z,53.70
2019-06-15T08:10:16.456Z,53.60
2019-06-15T08:12:45.909Z,53.40
2019-06-15T08:15:15.429Z,53.50
2019-06-15T08:17:45.795Z,53.50
2019-06-15T08:20:15.737Z,53.50
2019-06-15T08:22:45.115Z,53.50
2019-06-15T08:25:14.620Z,53.40
2019-06-15T08:27:44.017Z,53.40
2019-06-15T08:30:15.398Z,53.40
2019-06-15T08:32:44.785Z,53.50
2019-06-15T08:35:14.208Z,53.60
2019-06-15T08:37:43.660Z,53.70
2019-06-15T08:40:13.171Z,53.70
2019-06-15T08:42:42.576Z,53.50
2019-06-15T08:45:12.171Z,53.30
2019-06-15T08:47:41.649Z,53.30
2019-06-15T08:50:12.323Z,53.10
2019-06-15T08:52:41.844Z,53.10
2019-06-15T08:55:11.359Z,53.10
2019-06-15T08:57:40.805Z,53.10
2019-06-15T09:00:10.521Z,53.20
2019-06-15T09:02:39.896Z,53.40
2019-06-15T09:05:10.416Z,53.20
2019-06-15T09:07:39.897Z,53.20
2019-06-15T09:10:09.659Z,53.20
2019-06-15T09:12:39.108Z,53.20
2019-06-15T09:15:09.273Z,53.30
2019-06-15T09:17:38.749Z,53.20
2019-06-15T09:20:09.370Z,53.20
2019-06-15T09:22:38.775Z,53.10
2019-06-15T09:25:08.534Z,53.20
2019-06-15T09:27:37.932Z,53.20
2019-06-15T09:30:07.584Z,53.20
2019-06-15T09:32:37.016Z,53.00
2019-06-15T09:35:06.893Z,52.80
2019-06-15T09:37:36.369Z,52.80
2019-06-15T09:40:06.418Z,52.90
2019-06-15T09:42:35.872Z,52.70
2019-06-15T09:45:05.580Z,52.50
2019-06-15T09:47:35.004Z,52.00
2019-06-15T09:50:04.620Z,51.50
2019-06-15T09:52:34.048Z,51.20
2019-06-15T09:55:03.429Z,51.10
2019-06-15T09:57:32.824Z,51.00
2019-06-15T10:00:02.616Z,50.90
2019-06-15T10:02:32.328Z,51.00
2019-06-15T10:05:01.746Z,50.80
2019-06-15T10:07:31.112Z,50.50
2019-06-15T10:10:00.517Z,50.40
2019-06-15T10:12:29.952Z,50.40
2019-06-15T10:15:00.247Z,50.30
2019-06-15T10:17:29.688Z,50.40
2019-06-15T10:19:59.107Z,50.00
2019-06-15T10:22:28.565Z,50.00
2019-06-15T10:24:57.961Z,50.00
2019-06-15T10:27:27.399Z,49.80
2019-06-15T10:29:56.779Z,49.50
2019-06-15T10:32:26.196Z,49.30
2019-06-15T10:34:55.641Z,49.20
2019-06-15T10:37:25.063Z,49.10
2019-06-15T10:39:54.465Z,49.10
2019-06-15T10:42:23.872Z,48.80
2019-06-15T10:44:53.251Z,48.70
2019-06-15T10:47:22.733Z,48.50
2019-06-15T10:49:52.152Z,48.30
2019-06-15T10:52:21.535Z,48.40
2019-06-15T10:54:50.948Z,48.40
2019-06-15T10:57:20.422Z,48.60
2019-06-15T10:59:57.401Z,48.60
2019-06-15T11:02:20.912Z,48.70
2019-06-15T11:04:50.380Z,48.60
2019-06-15T11:07:19.763Z,48.60
2019-06-15T11:09:49.215Z,48.90
2019-06-15T11:12:18.618Z,49.00
2019-06-15T11:14:48.043Z,48.80
2019-06-15T11:17:17.449Z,48.70
2019-06-15T11:19:46.868Z,48.60
2019-06-15T11:22:16.314Z,48.40
2019-06-15T11:24:45.683Z,48.20
2019-06-15T11:27:15.202Z,48.20
2019-06-15T11:29:44.582Z,48.20
2019-06-15T11:32:14.007Z,48.30
2019-06-15T11:34:43.441Z,48.50
2019-06-15T11:37:12.838Z,48.80
2019-06-15T11:39:42.269Z,48.90
2019-06-15T11:42:11.675Z,48.80
2019-06-15T11:44:41.111Z,48.80
2019-06-15T11:47:10.506Z,48.60
2019-06-15T11:49:39.899Z,48.30
2019-06-15T11:52:09.305Z,48.20
2019-06-15T11:54:38.731Z,48.20
2019-06-15T11:57:08.144Z,47.90
2019-06-15T11:59:37.594Z,48.00
2019-06-15T12:02:07.057Z,48.00
2019-06-15T12:04:36.441Z,48.10
2019-06-15T12:07:05.963Z,47.80
2019-06-15T12:09:35.376Z,47.50
2019-06-15T12:12:04.905Z,47.10
2019-06-15T12:14:34.389Z,47.20
2019-06-15T12:17:03.831Z,47.20
2019-06-15T12:19:33.270Z,47.20
2019-06-15T12:22:02.689Z,47.50
2019-06-15T12:24:32.093Z,47.70
2019-06-15T12:27:01.516Z,48.10
2019-06-15T12:29:30.937Z,48.40
2019-06-15T12:32:00.372Z,48.20
2019-06-15T12:34:29.822Z,48.20
2019-06-15T12:36:59.233Z,48.10
2019-06-15T12:39:28.652Z,48.10
2019-06-15T12:41:58.056Z,48.00
2019-06-15T12:44:27.448Z,48.20
2019-06-15T12:46:56.917Z,47.90
2019-06-15T12:49:26.288Z,47.50
2019-06-15T12:51:55.699Z,47.50
2019-06-15T12:54:25.131Z,47.40
2019-06-15T12:56:54.558Z,47.60
2019-06-15T12:59:24.020Z,47.80
2019-06-15T13:01:53.413Z,47.80
2019-06-15T13:04:22.856Z,47.80
2019-06-15T13:06:52.257Z,47.60
2019-06-15T13:09:21.647Z,47.40
2019-06-15T13:11:51.128Z,47.00
2019-06-15T13:14:20.525Z,47.00
2019-06-15T13:16:49.973Z,47.10
2019-06-15T13:19:19.421Z,47.10
2019-06-15T13:21:48.810Z,47.20
2019-06-15T13:24:18.345Z,47.60
2019-06-15T13:26:47.756Z,47.50
2019-06-15T13:29:17.203Z,47.30
2019-06-15T13:31:47.032Z,47.30
2019-06-15T13:34:16.482Z,47.30
2019-06-15T13:36:45.896Z,47.50
2019-06-15T13:39:15.276Z,47.40
2019-06-15T13:41:44.733Z,47.40
2019-06-15T13:44:14.143Z,47.40
2019-06-15T13:46:43.512Z,47.40
2019-06-15T13:49:12.875Z,47.20
2019-06-15T13:51:42.248Z,46.90
2019-06-15T13:54:11.695Z,46.70
2019-06-15T13:56:41.067Z,46.60
2019-06-15T13:59:10.496Z,46.70
2019-06-15T14:01:39.875Z,47.10
2019-06-15T14:04:09.292Z,47.50
2019-06-15T14:06:38.707Z,47.70
2019-06-15T14:09:08.390Z,47.70
2019-06-15T14:11:37.768Z,47.70
2019-06-15T14:14:07.204Z,47.70
2019-06-15T14:16:36.659Z,47.60
2019-06-15T14:19:06.075Z,47.60
2019-06-15T14:21:35.536Z,47.70
2019-06-15T14:24:04.901Z,47.70
2019-06-15T14:26:34.304Z,47.50
2019-06-15T14:29:03.689Z,47.60
2019-06-15T14:31:33.109Z,47.60
2019-06-15T14:34:02.479Z,47.80
2019-06-15T14:36:32.008Z,48.00
2019-06-15T14:39:01.441Z,48.20
2019-06-15T14:41:30.909Z,48.40
2019-06-15T14:44:00.309Z,48.70
2019-06-15T14:46:29.739Z,49.00
2019-06-15T14:48:59.103Z,49.00
2019-06-15T14:51:28.513Z,49.20
2019-06-15T14:53:59.125Z,49.40
2019-06-15T14:56:28.712Z,49.50
2019-06-15T14:58:58.148Z,49.60
2019-06-15T15:01:27.834Z,49.70
2019-06-15T15:03:57.353Z,50.50
2019-06-15T15:06:26.789Z,50.00
2019-06-15T15:08:56.366Z,50.20
2019-06-15T15:11:26.459Z,50.00
2019-06-15T15:13:56.259Z,50.00
2019-06-15T15:16:25.723Z,50.10
2019-06-15T15:18:56.743Z,50.00
2019-06-15T15:21:27.993Z,50.00
2019-06-15T15:23:57.818Z,49.80
2019-06-15T15:26:27.332Z,49.80
2019-06-15T15:28:56.784Z,49.80
2019-06-15T15:31:27.221Z,50.00
2019-06-15T15:33:56.755Z,50.30
2019-06-15T15:36:26.412Z,50.90
2019-06-15T15:38:56.179Z,51.70
2019-06-15T15:41:26.619Z,52.90
2019-06-15T15:43:56.177Z,53.00
2019-06-15T15:46:25.604Z,53.50
2019-06-15T15:48:56.891Z,54.10
2019-06-15T15:51:26.232Z,54.70
2019-06-15T15:53:56.710Z,55.10
2019-06-15T15:56:27.241Z,55.50
2019-06-15T15:58:56.795Z,56.00
2019-06-15T16:01:26.477Z,56.30
2019-06-15T16:03:56.249Z,56.50
2019-06-15T16:06:26.179Z,56.40
2019-06-15T16:08:56.957Z,56.30
2019-06-15T16:11:26.764Z,55.90
2019-06-15T16:13:56.508Z,55.40
2019-06-15T16:16:26.716Z,54.80
2019-06-15T16:18:56.311Z,54.50
2019-06-15T16:21:26.028Z,54.30
2019-06-15T16:23:58.188Z,54.20
2019-06-15T16:26:27.207Z,54.40
2019-06-15T16:28:56.720Z,54.40
2019-06-15T16:31:29.129Z,54.40
2019-06-15T16:33:57.178Z,54.50
2019-06-15T16:36:26.566Z,54.60
2019-06-15T16:38:55.952Z,54.60
2019-06-15T16:41:25.914Z,54.80
2019-06-15T16:43:56.304Z,54.90
2019-06-15T16:46:26.346Z,54.90
2019-06-15T16:48:56.005Z,54.80
2019-06-15T16:51:26.961Z,54.70
2019-06-15T16:53:57.084Z,54.80
2019-06-15T16:56:26.877Z,54.80
2019-06-15T16:58:56.441Z,54.90
2019-06-15T17:01:27.506Z,55.00
2019-06-15T17:03:57.137Z,55.50
2019-06-15T17:06:26.969Z,54.60
2019-06-15T17:08:56.718Z,54.20
2019-06-15T17:11:26.460Z,53.70
2019-06-15T17:13:56.375Z,53.70
2019-06-15T17:16:26.129Z,53.60
2019-06-15T17:18:56.202Z,53.60
2019-06-15T17:21:26.144Z,53.70
2019-06-15T17:23:57.269Z,53.70
2019-06-15T17:26:26.815Z,53.70
2019-06-15T17:28:56.683Z,53.80
2019-06-15T17:31:27.155Z,54.00
2019-06-15T17:33:56.620Z,54.10
2019-06-15T17:36:27.606Z,54.30
2019-06-15T17:38:57.182Z,54.30
2019-06-15T17:41:26.707Z,54.30
2019-06-15T17:43:56.587Z,54.30
2019-06-15T17:46:29.589Z,54.20
2019-06-15T17:48:57.159Z,54.50
2019-06-15T17:51:27.058Z,54.70
2019-06-15T17:53:56.498Z,54.80
2019-06-15T17:56:26.805Z,55.00
2019-06-15T17:58:56.455Z,55.40
2019-06-15T18:01:26.594Z,55.50
2019-06-15T18:03:58.187Z,55.60
2019-06-15T18:06:27.226Z,55.80
2019-06-15T18:08:56.635Z,55.90
2019-06-15T18:11:26.357Z,56.00
2019-06-15T18:13:56.627Z,56.10
2019-06-15T18:16:29.592Z,56.20
2019-06-15T18:18:57.221Z,56.40
2019-06-15T18:21:26.989Z,56.50
2019-06-15T18:23:57.316Z,56.70
2019-06-15T18:26:26.913Z,56.80
2019-06-15T18:28:56.311Z,57.00
2019-06-15T18:31:26.932Z,57.10
2019-06-15T18:34:06.509Z,57.50
2019-06-15T18:36:27.620Z,57.80
2019-06-15T18:38:57.599Z,58.20
2019-06-15T18:41:27.031Z,58.70
2019-06-15T18:43:56.600Z,59.00
2019-06-15T18:46:27.258Z,59.50
2019-06-15T18:48:57.052Z,59.90
2019-06-15T18:51:27.019Z,60.20
2019-06-15T18:53:56.596Z,60.40
2019-06-15T18:56:27.101Z,60.90
2019-06-15T18:58:56.603Z,61.20
2019-06-15T19:01:27.113Z,61.50
2019-06-15T19:03:56.589Z,61.80
2019-06-15T19:06:26.515Z,62.00
2019-06-15T19:08:57.441Z,62.10
2019-06-15T19:11:27.441Z,62.30
2019-06-15T19:13:56.870Z,62.70
2019-06-15T19:16:26.308Z,63.00
2019-06-15T19:18:56.654Z,63.20
2019-06-15T19:21:26.210Z,63.60
2019-06-15T19:23:56.485Z,64.00
2019-06-15T19:26:26.864Z,64.30
2019-06-15T19:28:56.301Z,64.70
2019-06-15T19:31:27.754Z,64.90
2019-06-15T19:33:56.942Z,65.20
2019-06-15T19:36:26.354Z,65.30
2019-06-15T19:38:57.146Z,65.30
2019-06-15T19:41:26.731Z,65.30
2019-06-15T19:43:57.099Z,65.40
2019-06-15T19:46:26.555Z,65.60
2019-06-15T19:48:56.112Z,65.60
2019-06-15T19:51:26.404Z,65.70
2019-06-15T19:53:56.697Z,65.90
2019-06-15T19:56:26.162Z,66.10
2019-06-15T19:58:56.488Z,66.30
2019-06-15T20:01:26.329Z,66.30
2019-06-15T20:03:57.454Z,66.50
2019-06-15T20:06:26.960Z,66.70
2019-06-15T20:08:56.414Z,66.90
2019-06-15T20:11:25.749Z,67.10
2019-06-15T20:13:56.201Z,67.20
2019-06-15T20:16:25.740Z,67.20
2019-06-15T20:18:56.291Z,67.20
2019-06-15T20:21:25.844Z,67.30
2019-06-15T20:23:56.579Z,67.40
2019-06-15T20:26:26.846Z,67.80
2019-06-15T20:28:56.493Z,68.10
2019-06-15T20:31:25.861Z,68.70
2019-06-15T20:33:57.001Z,69.50
2019-06-15T20:36:26.974Z,70.20
2019-06-15T20:38:56.475Z,71.30
2019-06-15T20:41:26.949Z,72.30
2019-06-15T20:43:56.659Z,73.10
2019-06-15T20:46:26.492Z,74.40
2019-06-15T20:48:56.517Z,76.20
2019-06-15T20:51:25.931Z,77.10
2019-06-15T20:53:56.715Z,77.20
2019-06-15T20:56:26.682Z,77.80
2019-06-15T20:58:57.203Z,79.10
2019-06-15T21:01:26.667Z,80.30
2019-06-15T21:03:56.566Z,81.40
2019-06-15T21:06:26.215Z,82.30
2019-06-15T21:08:55.603Z,83.30
2019-06-15T21:11:26.533Z,84.20
2019-06-15T21:13:56.076Z,84.50
2019-06-15T21:16:26.196Z,85.00
2019-06-15T21:18:57.086Z,85.10
2019-06-15T21:21:27.680Z,85.20
2019-06-15T21:23:57.179Z,85.70
2019-06-15T21:26:27.267Z,86.30
2019-06-15T21:28:56.718Z,86.50
2019-06-15T21:31:26.363Z,86.80
2019-06-15T21:33:56.202Z,87.00
2019-06-15T21:36:26.171Z,87.10
2019-06-15T21:38:56.352Z,87.60
2019-06-15T21:41:26.301Z,87.70
2019-06-15T21:43:56.523Z,88.20
2019-06-15T21:46:26.704Z,88.50
2019-06-15T21:48:56.434Z,88.60
2019-06-15T21:51:27.055Z,88.80
2019-06-15T21:53:56.573Z,89.50
2019-06-15T21:56:29.008Z,89.80
2019-06-15T21:58:57.000Z,90.20
2019-06-15T22:01:37.477Z,90.60
2019-06-15T22:04:07.193Z,91.00
2019-06-15T22:06:37.225Z,91.20
2019-06-15T22:09:12.533Z,91.00
2019-06-15T22:11:46.909Z,90.90
2019-06-15T22:14:17.183Z,91.00
2019-06-15T22:16:46.708Z,91.30
2019-06-15T22:19:16.959Z,91.90
2019-06-15T22:21:47.760Z,92.50
2019-06-15T22:24:17.299Z,93.20
2019-06-15T22:26:46.867Z,93.80
2019-06-15T22:29:16.923Z,94.50
2019-06-15T22:31:46.756Z,94.80
2019-06-15T22:34:16.347Z,95.10
2019-06-15T22:36:47.772Z,95.20
2019-06-15T22:39:17.165Z,95.20
2019-06-15T22:41:47.083Z,95.30
2019-06-15T22:44:17.239Z,95.40
2019-06-15T22:46:46.664Z,95.30
2019-06-15T22:49:16.207Z,95.30
2019-06-15T22:51:46.000Z,95.20
2019-06-15T22:54:16.671Z,95.20
2019-06-15T22:56:46.563Z,95.10
2019-06-15T22:59:16.897Z,95.00
2019-06-15T23:01:46.424Z,95.00
2019-06-15T23:04:17.265Z,95.00
2019-06-15T23:06:48.225Z,95.00
2019-06-15T23:09:17.790Z,95.10
2019-06-15T23:11:47.176Z,95.20
2019-06-15T23:14:17.225Z,95.30
2019-06-15T23:16:47.483Z,95.30
2019-06-15T23:19:17.545Z,95.50
2019-06-15T23:21:47.010Z,95.50
2019-06-15T23:24:16.705Z,95.40
2019-06-15T23:26:46.292Z,95.50
2019-06-15T23:29:16.455Z,95.70
2019-06-15T23:31:46.297Z,95.70
2019-06-15T23:34:16.294Z,95.80
2019-06-15T23:36:56.335Z,95.80
2019-06-15T23:39:18.460Z,95.90
2019-06-15T23:41:47.872Z,95.80
2019-06-15T23:44:17.325Z,95.90
2019-06-15T23:46:47.028Z,95.90
2019-06-15T23:49:16.545Z,96.10
2019-06-15T23:51:46.675Z,96.20
2019-06-15T23:54:16.282Z,96.30
2019-06-15T23:56:46.196Z,96.30
2019-06-15T23:59:18.054Z,96.30
